sensor_id;sensor_type;location;lat;lon;timestamp;temperature;humidity
60860;DHT22;46694;54.382;9.708;2024-03-07T00:00:35;5.00;99.90
60860;DHT22;46694;54.382;9.708;2024-03-07T00:03:01;5.00;99.90
60860;DHT22;46694;54.382;9.708;2024-03-07T00:05:27;5.00;99.90
60860;DHT22;46694;54.382;9.708;2024-03-07T00:07:54;5.00;99.90
60860;DHT22;46694;54.382;9.708;2024-03-07T00:10:20;5.00;99.90
60860;DHT22;46694;54.382;9.708;2024-03-07T00:12:46;5.00;99.90
60860;DHT22;46694;54.382;9.708;2024-03-07T00:15:13;4.90;99.90
60860;DHT22;46694;54.382;9.708;2024-03-07T00:17:40;4.90;99.90
60860;DHT22;46694;54.382;9.708;2024-03-07T00:20:10;4.90;99.90
60860;DHT22;46694;54.382;9.708;2024-03-07T00:22:44;4.90;99.90
60860;DHT22;46694;54.382;9.708;2024-03-07T00:25:10;4.90;99.90
60860;DHT22;46694;54.382;9.708;2024-03-07T00:27:38;4.90;99.90
60860;DHT22;46694;54.382;9.708;2024-03-07T00:30:07;4.90;99.90
60860;DHT22;46694;54.382;9.708;2024-03-07T00:32:39;5.00;99.90
60860;DHT22;46694;54.382;9.708;2024-03-07T00:35:06;5.00;99.90
60860;DHT22;46694;54.382;9.708;2024-03-07T00:37:36;4.90;99.90
60860;DHT22;46694;54.382;9.708;2024-03-07T00:40:02;4.90;99.90
60860;DHT22;46694;54.382;9.708;2024-03-07T00:42:28;4.90;99.90
60860;DHT22;46694;54.382;9.708;2024-03-07T00:44:54;4.90;99.90
60860;DHT22;46694;54.382;9.708;2024-03-07T00:47:21;4.90;99.90
60860;DHT22;46694;54.382;9.708;2024-03-07T00:49:46;4.90;99.90
60860;DHT22;46694;54.382;9.708;2024-03-07T00:52:13;4.90;99.90
60860;DHT22;46694;54.382;9.708;2024-03-07T00:54:39;4.80;99.90
60860;DHT22;46694;54.382;9.708;2024-03-07T00:57:05;4.80;99.90
60860;DHT22;46694;54.382;9.708;2024-03-07T00:59:33;4.80;99.90
60860;DHT22;46694;54.382;9.708;2024-03-07T01:01:59;4.80;99.90
60860;DHT22;46694;54.382;9.708;2024-03-07T01:04:25;4.80;99.90
60860;DHT22;46694;54.382;9.708;2024-03-07T01:06:57;4.80;99.90
60860;DHT22;46694;54.382;9.708;2024-03-07T01:09:23;4.70;99.90
60860;DHT22;46694;54.382;9.708;2024-03-07T01:11:50;4.80;99.90
60860;DHT22;46694;54.382;9.708;2024-03-07T01:14:16;4.70;99.90
60860;DHT22;46694;54.382;9.708;2024-03-07T01:16:42;4.80;99.90
60860;DHT22;46694;54.382;9.708;2024-03-07T01:19:08;4.70;99.90
60860;DHT22;46694;54.382;9.708;2024-03-07T01:21:34;4.70;99.90
60860;DHT22;46694;54.382;9.708;2024-03-07T01:24:01;4.70;99.90
60860;DHT22;46694;54.382;9.708;2024-03-07T01:26:28;4.70;99.90
60860;DHT22;46694;54.382;9.708;2024-03-07T01:28:55;4.70;99.90
60860;DHT22;46694;54.382;9.708;2024-03-07T01:31:23;4.70;99.90
60860;DHT22;46694;54.382;9.708;2024-03-07T01:33:49;4.70;99.90
60860;DHT22;46694;54.382;9.708;2024-03-07T01:36:15;4.70;99.90
60860;DHT22;46694;54.382;9.708;2024-03-07T01:38:41;4.70;99.90
60860;DHT22;46694;54.382;9.708;2024-03-07T01:41:07;4.70;99.90
60860;DHT22;46694;54.382;9.708;2024-03-07T01:43:34;4.70;99.90
60860;DHT22;46694;54.382;9.708;2024-03-07T01:46:00;4.70;99.90
60860;DHT22;46694;54.382;9.708;2024-03-07T01:48:48;4.70;99.90
60860;DHT22;46694;54.382;9.708;2024-03-07T01:51:14;4.70;99.90
60860;DHT22;46694;54.382;9.708;2024-03-07T01:53:40;4.70;99.90
60860;DHT22;46694;54.382;9.708;2024-03-07T01:56:06;4.60;99.90
60860;DHT22;46694;54.382;9.708;2024-03-07T01:58:32;4.60;99.90
60860;DHT22;46694;54.382;9.708;2024-03-07T02:00:59;4.60;99.90
60860;DHT22;46694;54.382;9.708;2024-03-07T02:03:25;4.60;99.90
60860;DHT22;46694;54.382;9.708;2024-03-07T02:05:51;4.60;99.90
60860;DHT22;46694;54.382;9.708;2024-03-07T02:08:18;4.60;99.90
60860;DHT22;46694;54.382;9.708;2024-03-07T02:10:45;4.60;99.90
60860;DHT22;46694;54.382;9.708;2024-03-07T02:13:11;4.50;99.90
60860;DHT22;46694;54.382;9.708;2024-03-07T02:15:37;4.60;99.90
60860;DHT22;46694;54.382;9.708;2024-03-07T02:18:03;4.60;99.90
60860;DHT22;46694;54.382;9.708;2024-03-07T02:20:29;4.50;99.90
60860;DHT22;46694;54.382;9.708;2024-03-07T02:22:55;4.50;99.90
60860;DHT22;46694;54.382;9.708;2024-03-07T02:25:21;4.50;99.90
60860;DHT22;46694;54.382;9.708;2024-03-07T02:27:47;4.50;99.90
60860;DHT22;46694;54.382;9.708;2024-03-07T02:30:13;4.50;99.90
60860;DHT22;46694;54.382;9.708;2024-03-07T02:32:40;4.50;99.90
60860;DHT22;46694;54.382;9.708;2024-03-07T02:35:06;4.40;99.90
60860;DHT22;46694;54.382;9.708;2024-03-07T02:37:32;4.40;99.90
60860;DHT22;46694;54.382;9.708;2024-03-07T02:39:58;4.40;99.90
60860;DHT22;46694;54.382;9.708;2024-03-07T02:42:24;4.40;99.90
60860;DHT22;46694;54.382;9.708;2024-03-07T02:44:50;4.40;99.90
60860;DHT22;46694;54.382;9.708;2024-03-07T02:47:18;4.30;99.90
60860;DHT22;46694;54.382;9.708;2024-03-07T02:49:44;4.30;99.90
60860;DHT22;46694;54.382;9.708;2024-03-07T02:52:10;4.30;99.90
60860;DHT22;46694;54.382;9.708;2024-03-07T02:54:36;4.20;99.90
60860;DHT22;46694;54.382;9.708;2024-03-07T02:57:01;4.20;99.90
60860;DHT22;46694;54.382;9.708;2024-03-07T02:59:27;4.20;99.90
60860;DHT22;46694;54.382;9.708;2024-03-07T03:01:53;4.20;99.90
60860;DHT22;46694;54.382;9.708;2024-03-07T03:04:19;4.10;99.90
60860;DHT22;46694;54.382;9.708;2024-03-07T03:06:45;4.10;99.90
60860;DHT22;46694;54.382;9.708;2024-03-07T03:09:11;4.00;99.90
60860;DHT22;46694;54.382;9.708;2024-03-07T03:11:45;4.00;99.90
60860;DHT22;46694;54.382;9.708;2024-03-07T03:14:12;4.00;99.90
60860;DHT22;46694;54.382;9.708;2024-03-07T03:16:42;3.90;99.90
60860;DHT22;46694;54.382;9.708;2024-03-07T03:19:11;3.90;99.90
60860;DHT22;46694;54.382;9.708;2024-03-07T03:21:36;3.90;99.90
60860;DHT22;46694;54.382;9.708;2024-03-07T03:24:03;3.90;99.90
60860;DHT22;46694;54.382;9.708;2024-03-07T03:26:29;3.90;99.90
60860;DHT22;46694;54.382;9.708;2024-03-07T03:28:57;3.80;99.90
60860;DHT22;46694;54.382;9.708;2024-03-07T03:31:23;3.90;99.90
60860;DHT22;46694;54.382;9.708;2024-03-07T03:33:48;3.90;99.90
60860;DHT22;46694;54.382;9.708;2024-03-07T03:36:16;3.90;99.90
60860;DHT22;46694;54.382;9.708;2024-03-07T03:38:42;3.90;99.90
60860;DHT22;46694;54.382;9.708;2024-03-07T03:41:07;3.90;99.90
60860;DHT22;46694;54.382;9.708;2024-03-07T03:43:33;3.90;99.90
60860;DHT22;46694;54.382;9.708;2024-03-07T03:45:59;3.90;99.90
60860;DHT22;46694;54.382;9.708;2024-03-07T03:48:27;3.90;99.90
60860;DHT22;46694;54.382;9.708;2024-03-07T03:50:53;3.80;99.90
60860;DHT22;46694;54.382;9.708;2024-03-07T03:53:19;3.80;99.90
60860;DHT22;46694;54.382;9.708;2024-03-07T03:55:45;3.80;99.90
60860;DHT22;46694;54.382;9.708;2024-03-07T03:58:11;3.80;99.90
60860;DHT22;46694;54.382;9.708;2024-03-07T04:00:37;3.80;99.90
60860;DHT22;46694;54.382;9.708;2024-03-07T04:03:04;3.80;99.90
60860;DHT22;46694;54.382;9.708;2024-03-07T04:05:30;3.70;99.90
60860;DHT22;46694;54.382;9.708;2024-03-07T04:07:56;3.70;99.90
60860;DHT22;46694;54.382;9.708;2024-03-07T04:10:24;3.70;99.90
60860;DHT22;46694;54.382;9.708;2024-03-07T04:12:49;3.70;99.90
60860;DHT22;46694;54.382;9.708;2024-03-07T04:15:15;3.70;99.90
60860;DHT22;46694;54.382;9.708;2024-03-07T04:17:42;3.70;99.90
60860;DHT22;46694;54.382;9.708;2024-03-07T04:20:09;3.70;99.90
60860;DHT22;46694;54.382;9.708;2024-03-07T04:22:36;3.70;99.90
60860;DHT22;46694;54.382;9.708;2024-03-07T04:25:05;3.70;99.90
60860;DHT22;46694;54.382;9.708;2024-03-07T04:27:33;3.70;99.90
60860;DHT22;46694;54.382;9.708;2024-03-07T04:30:03;3.70;99.90
60860;DHT22;46694;54.382;9.708;2024-03-07T04:32:30;3.70;99.90
60860;DHT22;46694;54.382;9.708;2024-03-07T04:34:56;3.70;99.90
60860;DHT22;46694;54.382;9.708;2024-03-07T04:37:25;3.70;99.90
60860;DHT22;46694;54.382;9.708;2024-03-07T04:39:53;3.70;99.90
60860;DHT22;46694;54.382;9.708;2024-03-07T04:42:19;3.70;99.90
60860;DHT22;46694;54.382;9.708;2024-03-07T04:44:48;3.70;99.90
60860;DHT22;46694;54.382;9.708;2024-03-07T04:47:14;3.70;99.90
60860;DHT22;46694;54.382;9.708;2024-03-07T04:49:40;3.70;99.90
60860;DHT22;46694;54.382;9.708;2024-03-07T04:52:06;3.70;99.90
60860;DHT22;46694;54.382;9.708;2024-03-07T04:54:32;3.70;99.90
60860;DHT22;46694;54.382;9.708;2024-03-07T04:56:59;3.70;99.90
60860;DHT22;46694;54.382;9.708;2024-03-07T04:59:25;3.70;99.90
60860;DHT22;46694;54.382;9.708;2024-03-07T05:01:51;3.70;99.90
60860;DHT22;46694;54.382;9.708;2024-03-07T05:04:17;3.70;99.90
60860;DHT22;46694;54.382;9.708;2024-03-07T05:06:43;3.70;99.90
60860;DHT22;46694;54.382;9.708;2024-03-07T05:09:13;3.70;99.90
60860;DHT22;46694;54.382;9.708;2024-03-07T05:11:52;3.70;99.90
60860;DHT22;46694;54.382;9.708;2024-03-07T05:14:18;3.70;99.90
60860;DHT22;46694;54.382;9.708;2024-03-07T05:16:44;3.70;99.90
60860;DHT22;46694;54.382;9.708;2024-03-07T05:19:10;3.70;99.90
60860;DHT22;46694;54.382;9.708;2024-03-07T05:21:36;3.60;99.90
60860;DHT22;46694;54.382;9.708;2024-03-07T05:24:08;3.60;99.90
60860;DHT22;46694;54.382;9.708;2024-03-07T05:26:37;3.60;99.90
60860;DHT22;46694;54.382;9.708;2024-03-07T05:29:07;3.70;99.90
60860;DHT22;46694;54.382;9.708;2024-03-07T05:31:36;3.70;99.90
60860;DHT22;46694;54.382;9.708;2024-03-07T05:34:03;3.70;99.90
60860;DHT22;46694;54.382;9.708;2024-03-07T05:36:36;3.70;99.90
60860;DHT22;46694;54.382;9.708;2024-03-07T05:39:09;3.70;99.90
60860;DHT22;46694;54.382;9.708;2024-03-07T05:41:40;3.60;99.90
60860;DHT22;46694;54.382;9.708;2024-03-07T05:44:07;3.60;99.90
60860;DHT22;46694;54.382;9.708;2024-03-07T05:46:40;3.60;99.90
60860;DHT22;46694;54.382;9.708;2024-03-07T05:49:14;3.60;99.90
60860;DHT22;46694;54.382;9.708;2024-03-07T05:51:41;3.50;99.90
60860;DHT22;46694;54.382;9.708;2024-03-07T05:54:13;3.50;99.90
60860;DHT22;46694;54.382;9.708;2024-03-07T05:56:40;3.50;99.90
60860;DHT22;46694;54.382;9.708;2024-03-07T05:59:07;3.50;99.90
60860;DHT22;46694;54.382;9.708;2024-03-07T06:01:37;3.50;99.90
60860;DHT22;46694;54.382;9.708;2024-03-07T06:04:05;3.50;99.90
60860;DHT22;46694;54.382;9.708;2024-03-07T06:06:38;3.50;99.90
60860;DHT22;46694;54.382;9.708;2024-03-07T06:09:07;3.50;99.90
60860;DHT22;46694;54.382;9.708;2024-03-07T06:11:34;3.50;99.90
60860;DHT22;46694;54.382;9.708;2024-03-07T06:14:01;3.40;99.90
60860;DHT22;46694;54.382;9.708;2024-03-07T06:16:35;3.40;99.90
60860;DHT22;46694;54.382;9.708;2024-03-07T06:19:02;3.40;99.90
60860;DHT22;46694;54.382;9.708;2024-03-07T06:21:29;3.40;99.90
60860;DHT22;46694;54.382;9.708;2024-03-07T06:23:58;3.40;99.90
60860;DHT22;46694;54.382;9.708;2024-03-07T06:26:35;3.40;99.90
60860;DHT22;46694;54.382;9.708;2024-03-07T06:29:21;3.40;99.90
60860;DHT22;46694;54.382;9.708;2024-03-07T06:31:47;3.40;99.90
60860;DHT22;46694;54.382;9.708;2024-03-07T06:34:13;3.40;99.90
60860;DHT22;46694;54.382;9.708;2024-03-07T06:36:39;3.40;99.90
60860;DHT22;46694;54.382;9.708;2024-03-07T06:39:08;3.40;99.90
60860;DHT22;46694;54.382;9.708;2024-03-07T06:41:38;3.40;99.90
60860;DHT22;46694;54.382;9.708;2024-03-07T06:44:04;3.40;99.90
60860;DHT22;46694;54.382;9.708;2024-03-07T06:46:30;3.40;99.90
60860;DHT22;46694;54.382;9.708;2024-03-07T06:48:57;3.40;99.90
60860;DHT22;46694;54.382;9.708;2024-03-07T06:51:23;3.40;99.90
60860;DHT22;46694;54.382;9.708;2024-03-07T06:53:50;3.40;99.90
60860;DHT22;46694;54.382;9.708;2024-03-07T06:56:16;3.40;99.90
60860;DHT22;46694;54.382;9.708;2024-03-07T06:58:43;3.50;99.90
60860;DHT22;46694;54.382;9.708;2024-03-07T07:01:12;3.50;99.90
60860;DHT22;46694;54.382;9.708;2024-03-07T07:03:41;3.60;99.90
60860;DHT22;46694;54.382;9.708;2024-03-07T07:06:08;3.60;99.90
60860;DHT22;46694;54.382;9.708;2024-03-07T07:08:36;3.60;99.90
60860;DHT22;46694;54.382;9.708;2024-03-07T07:11:02;3.70;99.90
60860;DHT22;46694;54.382;9.708;2024-03-07T07:13:29;3.70;99.90
60860;DHT22;46694;54.382;9.708;2024-03-07T07:15:56;3.70;99.90
60860;DHT22;46694;54.382;9.708;2024-03-07T07:18:22;3.80;99.90
60860;DHT22;46694;54.382;9.708;2024-03-07T07:20:49;3.90;99.90
60860;DHT22;46694;54.382;9.708;2024-03-07T07:23:18;3.80;99.90
60860;DHT22;46694;54.382;9.708;2024-03-07T07:25:52;3.90;99.90
60860;DHT22;46694;54.382;9.708;2024-03-07T07:28:17;4.00;99.90
60860;DHT22;46694;54.382;9.708;2024-03-07T07:30:43;4.00;99.90
60860;DHT22;46694;54.382;9.708;2024-03-07T07:33:09;4.00;99.90
60860;DHT22;46694;54.382;9.708;2024-03-07T07:35:35;4.10;99.90
60860;DHT22;46694;54.382;9.708;2024-03-07T07:38:01;4.10;99.90
60860;DHT22;46694;54.382;9.708;2024-03-07T07:40:27;4.10;99.90
60860;DHT22;46694;54.382;9.708;2024-03-07T07:42:54;4.10;99.90
60860;DHT22;46694;54.382;9.708;2024-03-07T07:45:21;4.20;99.90
60860;DHT22;46694;54.382;9.708;2024-03-07T07:47:49;4.30;99.90
60860;DHT22;46694;54.382;9.708;2024-03-07T07:50:18;4.30;99.90
60860;DHT22;46694;54.382;9.708;2024-03-07T07:52:55;4.30;99.90
60860;DHT22;46694;54.382;9.708;2024-03-07T07:55:24;4.30;99.90
60860;DHT22;46694;54.382;9.708;2024-03-07T07:57:53;4.30;99.90
60860;DHT22;46694;54.382;9.708;2024-03-07T08:00:22;4.40;99.90
60860;DHT22;46694;54.382;9.708;2024-03-07T08:02:56;4.40;99.90
60860;DHT22;46694;54.382;9.708;2024-03-07T08:05:25;4.40;99.90
60860;DHT22;46694;54.382;9.708;2024-03-07T08:07:54;4.40;99.90
60860;DHT22;46694;54.382;9.708;2024-03-07T08:10:24;4.40;99.90
60860;DHT22;46694;54.382;9.708;2024-03-07T08:12:52;4.50;99.90
60860;DHT22;46694;54.382;9.708;2024-03-07T08:15:18;4.50;99.90
60860;DHT22;46694;54.382;9.708;2024-03-07T08:17:46;4.60;99.90
60860;DHT22;46694;54.382;9.708;2024-03-07T08:20:14;4.60;99.90
60860;DHT22;46694;54.382;9.708;2024-03-07T08:22:42;4.70;99.90
60860;DHT22;46694;54.382;9.708;2024-03-07T08:25:13;4.80;99.90
60860;DHT22;46694;54.382;9.708;2024-03-07T08:27:42;4.80;99.90
60860;DHT22;46694;54.382;9.708;2024-03-07T08:30:17;4.90;99.90
60860;DHT22;46694;54.382;9.708;2024-03-07T08:32:45;4.90;99.90
60860;DHT22;46694;54.382;9.708;2024-03-07T08:35:11;4.90;99.90
60860;DHT22;46694;54.382;9.708;2024-03-07T08:40:05;5.00;99.90
60860;DHT22;46694;54.382;9.708;2024-03-07T08:42:36;5.00;99.90
60860;DHT22;46694;54.382;9.708;2024-03-07T08:45:03;4.90;99.90
60860;DHT22;46694;54.382;9.708;2024-03-07T08:47:36;4.90;99.90
60860;DHT22;46694;54.382;9.708;2024-03-07T08:50:04;4.90;99.90
60860;DHT22;46694;54.382;9.708;2024-03-07T08:52:36;4.90;99.90
60860;DHT22;46694;54.382;9.708;2024-03-07T08:55:04;4.90;99.90
60860;DHT22;46694;54.382;9.708;2024-03-07T08:57:30;4.90;99.90
60860;DHT22;46694;54.382;9.708;2024-03-07T08:59:56;4.90;99.90
60860;DHT22;46694;54.382;9.708;2024-03-07T09:02:22;5.00;99.90
60860;DHT22;46694;54.382;9.708;2024-03-07T09:04:48;5.10;99.90
60860;DHT22;46694;54.382;9.708;2024-03-07T09:07:14;5.10;99.90
60860;DHT22;46694;54.382;9.708;2024-03-07T09:09:40;5.20;99.90
60860;DHT22;46694;54.382;9.708;2024-03-07T09:12:11;5.20;99.90
60860;DHT22;46694;54.382;9.708;2024-03-07T09:14:37;5.30;99.90
60860;DHT22;46694;54.382;9.708;2024-03-07T09:17:04;5.30;99.90
60860;DHT22;46694;54.382;9.708;2024-03-07T09:19:33;5.40;99.90
60860;DHT22;46694;54.382;9.708;2024-03-07T09:22:05;5.40;99.90
60860;DHT22;46694;54.382;9.708;2024-03-07T09:24:33;5.40;99.90
60860;DHT22;46694;54.382;9.708;2024-03-07T09:27:00;5.50;99.90
60860;DHT22;46694;54.382;9.708;2024-03-07T09:29:26;5.50;99.90
60860;DHT22;46694;54.382;9.708;2024-03-07T09:31:53;5.50;99.90
60860;DHT22;46694;54.382;9.708;2024-03-07T09:34:20;5.60;99.90
60860;DHT22;46694;54.382;9.708;2024-03-07T09:36:47;5.60;99.90
60860;DHT22;46694;54.382;9.708;2024-03-07T09:39:14;5.70;99.90
60860;DHT22;46694;54.382;9.708;2024-03-07T09:41:41;5.60;99.90
60860;DHT22;46694;54.382;9.708;2024-03-07T09:44:09;5.60;99.90
60860;DHT22;46694;54.382;9.708;2024-03-07T09:46:38;5.60;99.90
60860;DHT22;46694;54.382;9.708;2024-03-07T09:49:05;5.60;99.90
60860;DHT22;46694;54.382;9.708;2024-03-07T09:51:35;5.60;99.90
60860;DHT22;46694;54.382;9.708;2024-03-07T09:54:01;5.50;99.90
60860;DHT22;46694;54.382;9.708;2024-03-07T09:56:28;5.40;99.90
60860;DHT22;46694;54.382;9.708;2024-03-07T09:58:57;5.40;99.90
60860;DHT22;46694;54.382;9.708;2024-03-07T10:01:27;5.30;99.90
60860;DHT22;46694;54.382;9.708;2024-03-07T10:03:59;5.30;99.90
60860;DHT22;46694;54.382;9.708;2024-03-07T10:06:43;5.30;99.90
60860;DHT22;46694;54.382;9.708;2024-03-07T10:09:13;5.30;99.90
60860;DHT22;46694;54.382;9.708;2024-03-07T10:11:43;5.30;99.90
60860;DHT22;46694;54.382;9.708;2024-03-07T10:14:11;5.20;99.90
60860;DHT22;46694;54.382;9.708;2024-03-07T10:16:40;5.20;99.90
60860;DHT22;46694;54.382;9.708;2024-03-07T10:19:06;5.20;99.90
60860;DHT22;46694;54.382;9.708;2024-03-07T10:21:35;5.10;99.90
60860;DHT22;46694;54.382;9.708;2024-03-07T10:24:08;5.10;99.90
60860;DHT22;46694;54.382;9.708;2024-03-07T10:26:37;5.10;99.90
60860;DHT22;46694;54.382;9.708;2024-03-07T10:29:07;5.10;99.90
60860;DHT22;46694;54.382;9.708;2024-03-07T10:31:35;5.20;99.90
60860;DHT22;46694;54.382;9.708;2024-03-07T10:34:04;5.20;99.90
60860;DHT22;46694;54.382;9.708;2024-03-07T10:36:31;5.20;99.90
60860;DHT22;46694;54.382;9.708;2024-03-07T10:38:58;5.20;99.90
60860;DHT22;46694;54.382;9.708;2024-03-07T10:44:11;5.20;99.90
60860;DHT22;46694;54.382;9.708;2024-03-07T10:46:57;5.20;99.90
60860;DHT22;46694;54.382;9.708;2024-03-07T10:49:26;5.30;99.90
60860;DHT22;46694;54.382;9.708;2024-03-07T11:00:02;5.40;99.90
60860;DHT22;46694;54.382;9.708;2024-03-07T11:02:50;5.40;99.90
60860;DHT22;46694;54.382;9.708;2024-03-07T11:05:21;5.40;99.90
60860;DHT22;46694;54.382;9.708;2024-03-07T11:07:50;5.40;99.90
60860;DHT22;46694;54.382;9.708;2024-03-07T11:10:18;5.50;99.90
60860;DHT22;46694;54.382;9.708;2024-03-07T11:12:47;5.50;99.90
60860;DHT22;46694;54.382;9.708;2024-03-07T11:15:17;5.50;99.90
60860;DHT22;46694;54.382;9.708;2024-03-07T11:17:46;5.50;99.90
60860;DHT22;46694;54.382;9.708;2024-03-07T11:20:27;5.50;99.90
60860;DHT22;46694;54.382;9.708;2024-03-07T11:22:59;5.50;99.90
60860;DHT22;46694;54.382;9.708;2024-03-07T11:25:27;5.60;99.90
60860;DHT22;46694;54.382;9.708;2024-03-07T11:28:00;5.60;99.90
60860;DHT22;46694;54.382;9.708;2024-03-07T11:30:27;5.60;99.90
60860;DHT22;46694;54.382;9.708;2024-03-07T11:32:54;5.60;99.90
60860;DHT22;46694;54.382;9.708;2024-03-07T11:35:21;5.60;99.90
60860;DHT22;46694;54.382;9.708;2024-03-07T11:37:58;5.70;99.90
60860;DHT22;46694;54.382;9.708;2024-03-07T11:42:52;5.90;99.90
60860;DHT22;46694;54.382;9.708;2024-03-07T11:45:20;5.90;99.90
60860;DHT22;46694;54.382;9.708;2024-03-07T11:47:54;6.10;99.90
60860;DHT22;46694;54.382;9.708;2024-03-07T11:50:29;6.10;99.90
60860;DHT22;46694;54.382;9.708;2024-03-07T11:53:00;6.20;99.90
60860;DHT22;46694;54.382;9.708;2024-03-07T11:55:27;6.20;99.90
60860;DHT22;46694;54.382;9.708;2024-03-07T11:58:09;6.20;99.90
60860;DHT22;46694;54.382;9.708;2024-03-07T12:00:39;6.30;99.90
60860;DHT22;46694;54.382;9.708;2024-03-07T12:03:11;6.30;99.90
60860;DHT22;46694;54.382;9.708;2024-03-07T12:05:43;6.30;99.90
60860;DHT22;46694;54.382;9.708;2024-03-07T12:08:13;6.30;99.90
60860;DHT22;46694;54.382;9.708;2024-03-07T12:10:41;6.30;99.90
60860;DHT22;46694;54.382;9.708;2024-03-07T12:13:11;6.30;99.90
60860;DHT22;46694;54.382;9.708;2024-03-07T12:15:38;6.40;99.90
60860;DHT22;46694;54.382;9.708;2024-03-07T12:18:05;6.40;99.90
60860;DHT22;46694;54.382;9.708;2024-03-07T12:20:37;6.50;99.90
60860;DHT22;46694;54.382;9.708;2024-03-07T12:23:05;6.50;99.90
60860;DHT22;46694;54.382;9.708;2024-03-07T12:25:40;6.50;99.90
60860;DHT22;46694;54.382;9.708;2024-03-07T12:28:11;6.50;99.90
60860;DHT22;46694;54.382;9.708;2024-03-07T12:30:53;6.50;99.90
60860;DHT22;46694;54.382;9.708;2024-03-07T12:33:20;6.50;99.90
60860;DHT22;46694;54.382;9.708;2024-03-07T12:35:52;6.50;99.90
60860;DHT22;46694;54.382;9.708;2024-03-07T12:38:25;6.50;99.90
60860;DHT22;46694;54.382;9.708;2024-03-07T12:41:05;6.60;99.90
60860;DHT22;46694;54.382;9.708;2024-03-07T12:43:34;6.60;99.90
60860;DHT22;46694;54.382;9.708;2024-03-07T12:46:00;6.70;99.90
60860;DHT22;46694;54.382;9.708;2024-03-07T12:48:26;6.70;99.90
60860;DHT22;46694;54.382;9.708;2024-03-07T12:50:53;6.70;99.90
60860;DHT22;46694;54.382;9.708;2024-03-07T12:53:20;6.70;99.90
60860;DHT22;46694;54.382;9.708;2024-03-07T12:55:47;6.70;99.90
60860;DHT22;46694;54.382;9.708;2024-03-07T12:58:14;6.80;99.90
60860;DHT22;46694;54.382;9.708;2024-03-07T13:00:41;6.80;99.90
60860;DHT22;46694;54.382;9.708;2024-03-07T13:03:10;6.80;99.90
60860;DHT22;46694;54.382;9.708;2024-03-07T13:05:39;6.90;99.90
60860;DHT22;46694;54.382;9.708;2024-03-07T13:08:07;6.90;99.90
60860;DHT22;46694;54.382;9.708;2024-03-07T13:10:42;6.90;99.90
60860;DHT22;46694;54.382;9.708;2024-03-07T13:13:08;6.90;99.90
60860;DHT22;46694;54.382;9.708;2024-03-07T13:15:37;6.90;99.90
60860;DHT22;46694;54.382;9.708;2024-03-07T13:18:05;6.90;99.90
60860;DHT22;46694;54.382;9.708;2024-03-07T13:20:31;6.90;99.90
60860;DHT22;46694;54.382;9.708;2024-03-07T13:22:57;6.90;99.90
60860;DHT22;46694;54.382;9.708;2024-03-07T13:25:26;6.80;99.90
60860;DHT22;46694;54.382;9.708;2024-03-07T13:30:43;6.80;99.90
60860;DHT22;46694;54.382;9.708;2024-03-07T13:33:10;6.80;99.90
60860;DHT22;46694;54.382;9.708;2024-03-07T13:35:38;6.70;99.90
60860;DHT22;46694;54.382;9.708;2024-03-07T13:38:05;6.70;99.90
60860;DHT22;46694;54.382;9.708;2024-03-07T13:40:32;6.70;99.90
60860;DHT22;46694;54.382;9.708;2024-03-07T13:43:00;6.70;99.90
60860;DHT22;46694;54.382;9.708;2024-03-07T13:45:31;6.80;99.90
60860;DHT22;46694;54.382;9.708;2024-03-07T13:47:59;6.90;99.90
60860;DHT22;46694;54.382;9.708;2024-03-07T13:50:27;6.90;99.90
60860;DHT22;46694;54.382;9.708;2024-03-07T13:52:56;6.90;99.90
60860;DHT22;46694;54.382;9.708;2024-03-07T14:21:50;6.90;99.90
60860;DHT22;46694;54.382;9.708;2024-03-07T14:33:31;6.90;99.90
60860;DHT22;46694;54.382;9.708;2024-03-07T14:36:14;6.90;99.90
60860;DHT22;46694;54.382;9.708;2024-03-07T14:38:51;6.90;99.90
60860;DHT22;46694;54.382;9.708;2024-03-07T14:41:20;6.90;99.90
60860;DHT22;46694;54.382;9.708;2024-03-07T14:43:49;6.90;99.90
60860;DHT22;46694;54.382;9.708;2024-03-07T14:46:17;6.90;99.90
60860;DHT22;46694;54.382;9.708;2024-03-07T14:48:45;6.90;99.90
60860;DHT22;46694;54.382;9.708;2024-03-07T14:51:12;6.90;99.90
60860;DHT22;46694;54.382;9.708;2024-03-07T14:53:40;6.90;99.90
60860;DHT22;46694;54.382;9.708;2024-03-07T14:56:07;6.80;99.90
60860;DHT22;46694;54.382;9.708;2024-03-07T14:58:34;6.70;99.90
60860;DHT22;46694;54.382;9.708;2024-03-07T15:01:01;6.70;99.90
60860;DHT22;46694;54.382;9.708;2024-03-07T15:03:27;6.60;99.90
60860;DHT22;46694;54.382;9.708;2024-03-07T15:05:54;6.60;99.90
60860;DHT22;46694;54.382;9.708;2024-03-07T15:08:20;6.60;99.90
60860;DHT22;46694;54.382;9.708;2024-03-07T15:10:56;6.50;99.90
60860;DHT22;46694;54.382;9.708;2024-03-07T15:13:23;6.50;99.90
60860;DHT22;46694;54.382;9.708;2024-03-07T15:15:49;6.50;99.90
60860;DHT22;46694;54.382;9.708;2024-03-07T15:18:15;6.50;99.90
60860;DHT22;46694;54.382;9.708;2024-03-07T15:20:40;6.50;99.90
60860;DHT22;46694;54.382;9.708;2024-03-07T15:23:07;6.40;99.90
60860;DHT22;46694;54.382;9.708;2024-03-07T15:25:33;6.40;99.90
60860;DHT22;46694;54.382;9.708;2024-03-07T15:27:59;6.40;99.90
60860;DHT22;46694;54.382;9.708;2024-03-07T15:30:28;6.40;99.90
60860;DHT22;46694;54.382;9.708;2024-03-07T15:33:04;6.40;99.90
60860;DHT22;46694;54.382;9.708;2024-03-07T15:35:30;6.30;99.90
60860;DHT22;46694;54.382;9.708;2024-03-07T15:37:57;6.30;99.90
60860;DHT22;46694;54.382;9.708;2024-03-07T15:40:23;6.30;99.90
60860;DHT22;46694;54.382;9.708;2024-03-07T15:42:51;6.20;99.90
60860;DHT22;46694;54.382;9.708;2024-03-07T15:45:20;6.20;99.90
60860;DHT22;46694;54.382;9.708;2024-03-07T15:47:58;6.20;99.90
60860;DHT22;46694;54.382;9.708;2024-03-07T15:50:25;6.10;99.90
60860;DHT22;46694;54.382;9.708;2024-03-07T15:52:54;6.10;99.90
60860;DHT22;46694;54.382;9.708;2024-03-07T15:55:21;6.00;99.90
60860;DHT22;46694;54.382;9.708;2024-03-07T15:57:59;6.00;99.90
60860;DHT22;46694;54.382;9.708;2024-03-07T16:00:30;5.90;99.90
60860;DHT22;46694;54.382;9.708;2024-03-07T16:03:06;5.90;99.90
60860;DHT22;46694;54.382;9.708;2024-03-07T16:05:40;5.90;99.90
60860;DHT22;46694;54.382;9.708;2024-03-07T16:08:08;5.80;99.90
60860;DHT22;46694;54.382;9.708;2024-03-07T16:10:42;5.80;99.90
60860;DHT22;46694;54.382;9.708;2024-03-07T16:13:12;5.80;99.90
60860;DHT22;46694;54.382;9.708;2024-03-07T16:15:40;5.80;99.90
60860;DHT22;46694;54.382;9.708;2024-03-07T16:18:07;5.80;99.90
60860;DHT22;46694;54.382;9.708;2024-03-07T16:20:35;5.70;99.90
60860;DHT22;46694;54.382;9.708;2024-03-07T16:23:01;5.70;99.90
60860;DHT22;46694;54.382;9.708;2024-03-07T16:25:31;5.60;99.90
60860;DHT22;46694;54.382;9.708;2024-03-07T16:28:05;5.60;99.90
60860;DHT22;46694;54.382;9.708;2024-03-07T16:30:32;5.60;99.90
60860;DHT22;46694;54.382;9.708;2024-03-07T16:32:59;5.50;99.90
60860;DHT22;46694;54.382;9.708;2024-03-07T16:35:30;5.50;99.90
60860;DHT22;46694;54.382;9.708;2024-03-07T16:37:59;5.50;99.90
60860;DHT22;46694;54.382;9.708;2024-03-07T16:40:27;5.40;99.90
60860;DHT22;46694;54.382;9.708;2024-03-07T16:42:55;5.40;99.90
60860;DHT22;46694;54.382;9.708;2024-03-07T16:45:28;5.30;99.90